Athboy, South Dakota
Current Conditions -  °F | °C
As of 11:53 AM on Friday 21 Nov 2014 (Local Time) from KHEI Reporting Station
Clear Clear  
Wind Chill: 33°   Ceiling: Unl
Heat Index: 41°   Visibility: 10mi
Dew Point: 27°   Wind: 16mph
Humidity: 57%   Direction: 260°W
Pressure: 29.76"   Gusts: NA
Location:  45.2919°N, 102.298°W
Report Text: KHEI 211853Z AUTO 26014KT 10SM CLR 05/M03 A2976 RMK AO2 SLP105 T00501028
Loading
Personal Weather Stations






























Interactive Weather Map New forecast layout! Learn more

10-Day Weather Forecast

Advertisements
Track Severe Weather on mobile